Schedule Details


Flight Number: CTN674
Departure: Zemunik (LDZD) at 15:25
Arrival: Pula (LDPL) at 16:00
Route: EBITA N606 LOS

Weather Information
LDZD 180000Z 08003KT CAVOK 19/17 Q1017 NOSIG
LDPL 180000Z 04001KT CAVOK 21/12 Q1017
Schedule Frequency

Route Map